< < Back
Terminal Aerodrome Forecast


Current Version              Previous Versions:   1  2  3  4  5  6  7  8  9  

Terminal Aerodrome Forecast

162
FTUS42 KGSP 012335
TAFHKY
TAF
KHKY 012335Z 0200/0224 12003KT P6SM FEW250
     FM020600 15004KT P6SM SCT050
     FM021200 17004KT P6SM BKN040
     FM021800 19007KT P6SM BKN020
     FM022100 21006KT P6SM VCSH OVC010=



Latest METAR

262
SAUS70 KWBC 020600
MTRHKY
METAR KHKY 020553Z AUTO 02005KT 10SM CLR 09/01 A3022 RMK AO2 SLP220
T00890006 10183 20089 51014


USA.gov is the U.S. government's official web portal to all federal, state and local government web resources and services.